Time;durP1;ratioP1;P1;durP2;ratioP2;P2;SDS_P1;SDS_P2;PMS_P1;PMS_P2;Temp;Humidity;BMP_temperature;BMP_pressure;BME280_temperature;BME280_humidity;BME280_pressure;Samples;Min_cycle;Max_cycle;Signal;HPM_P1;HPM_P2
2021/09/20 00:02:41;;;;;;;;;;;20.80;49.60;;;;;;8398067;28;20369;-49
2021/09/20 00:06:41;;;;;;;;;;;20.70;49.50;;;;;;8401656;28;20319;-48
2021/09/20 00:10:42;;;;;;;;;;;20.70;49.50;;;;;;8400970;28;19920;-49
2021/09/20 00:14:42;;;;;;;;;;;20.80;49.50;;;;;;8427488;28;19916;-51
2021/09/20 00:18:43;;;;;;;;;;;20.70;49.60;;;;;;8419352;28;19920;-52
2021/09/20 00:22:43;;;;;;;;;;;20.70;49.60;;;;;;8406001;28;19926;-51
2021/09/20 00:26:44;;;;;;;;;;;20.80;49.60;;;;;;8401840;28;19924;-49
2021/09/20 00:30:44;;;;;;;;;;;20.70;49.50;;;;;;8401137;28;19923;-48
2021/09/20 00:34:45;;;;;;;;;;;20.70;49.70;;;;;;8400064;28;19923;-48
2021/09/20 00:38:45;;;;;;;;;;;20.70;49.60;;;;;;8400111;28;19916;-48
2021/09/20 00:42:46;;;;;;;;;;;20.70;49.60;;;;;;8399811;28;19985;-49
2021/09/20 00:46:47;;;;;;;;;;;20.70;49.60;;;;;;8400128;28;20391;-49
2021/09/20 00:50:47;;;;;;;;;;;20.70;49.60;;;;;;8399686;28;19916;-50
2021/09/20 00:54:50;;;;;;;;;;;20.70;49.60;;;;;;8399769;28;20266;-50
2021/09/20 00:58:50;;;;;;;;;;;20.70;49.70;;;;;;8399211;28;19923;-50
2021/09/20 01:02:51;;;;;;;;;;;20.70;49.60;;;;;;8400264;28;20270;-49
2021/09/20 01:06:51;;;;;;;;;;;20.70;49.60;;;;;;8399513;28;19951;-49
2021/09/20 01:10:52;;;;;;;;;;;20.70;49.60;;;;;;8399086;28;19927;-52
2021/09/20 01:14:55;;;;;;;;;;;20.70;49.60;;;;;;8398860;28;19913;-51
2021/09/20 01:18:55;;;;;;;;;;;20.70;49.60;;;;;;8399756;28;19964;-49
2021/09/20 01:22:59;;;;;;;;;;;20.70;49.60;;;;;;8399250;28;19932;-49
2021/09/20 01:27:01;;;;;;;;;;;20.60;49.50;;;;;;8403649;28;19917;-51
2021/09/20 01:31:02;;;;;;;;;;;20.70;49.60;;;;;;8402105;28;19939;-51
2021/09/20 01:35:02;;;;;;;;;;;20.70;49.60;;;;;;8399363;28;20337;-48
2021/09/20 01:39:03;;;;;;;;;;;20.70;49.60;;;;;;8399320;28;20293;-50
2021/09/20 01:43:03;;;;;;;;;;;20.70;49.60;;;;;;8397804;28;19924;-50
2021/09/20 01:47:04;;;;;;;;;;;20.70;49.60;;;;;;8398231;28;19916;-49
2021/09/20 01:51:04;;;;;;;;;;;20.70;49.60;;;;;;8398158;28;19924;-49
2021/09/20 01:55:06;;;;;;;;;;;20.70;49.60;;;;;;8397625;28;19923;-49
2021/09/20 01:59:07;;;;;;;;;;;20.70;49.60;;;;;;8398553;28;19916;-50
2021/09/20 02:03:07;;;;;;;;;;;20.60;49.60;;;;;;8397584;28;19924;-50
2021/09/20 02:07:08;;;;;;;;;;;20.70;49.60;;;;;;8397007;28;19970;-49
2021/09/20 02:11:08;;;;;;;;;;;20.70;49.60;;;;;;8397505;28;19931;-52
2021/09/20 02:15:09;;;;;;;;;;;20.70;49.60;;;;;;8397881;28;19920;-49
2021/09/20 02:19:10;;;;;;;;;;;20.60;49.60;;;;;;8396499;28;20009;-51
2021/09/20 02:23:12;;;;;;;;;;;20.60;49.60;;;;;;8397274;28;19924;-48
2021/09/20 02:27:12;;;;;;;;;;;20.60;49.60;;;;;;8396995;28;19962;-50
2021/09/20 02:31:13;;;;;;;;;;;20.60;49.70;;;;;;8397212;28;20296;-49
2021/09/20 02:35:14;;;;;;;;;;;20.60;49.60;;;;;;8397067;28;20442;-49
2021/09/20 02:39:14;;;;;;;;;;;20.60;49.60;;;;;;8396838;28;19916;-52
2021/09/20 02:43:15;;;;;;;;;;;20.60;49.70;;;;;;8395918;28;19925;-50
2021/09/20 02:47:15;;;;;;;;;;;20.60;49.60;;;;;;8396910;28;19970;-49
2021/09/20 02:51:16;;;;;;;;;;;20.60;49.70;;;;;;8397272;28;19916;-49
2021/09/20 02:55:16;;;;;;;;;;;20.60;49.60;;;;;;8395679;28;19923;-52
2021/09/20 02:59:16;;;;;;;;;;;20.60;49.70;;;;;;8396566;28;19917;-49
2021/09/20 03:03:17;;;;;;;;;;;20.60;49.70;;;;;;8396022;28;20368;-49
2021/09/20 03:07:17;;;;;;;;;;;20.60;49.60;;;;;;8396259;28;20373;-48
2021/09/20 03:11:18;;;;;;;;;;;20.60;49.70;;;;;;8395978;28;19920;-49
2021/09/20 03:15:19;;;;;;;;;;;20.60;49.60;;;;;;8396000;28;19920;-50
2021/09/20 03:19:19;;;;;;;;;;;20.60;49.70;;;;;;8395494;28;19963;-50
2021/09/20 03:23:20;;;;;;;;;;;20.60;49.70;;;;;;8396484;28;19932;-49
2021/09/20 03:27:20;;;;;;;;;;;20.60;49.80;;;;;;8395696;28;20430;-49
2021/09/20 03:31:21;;;;;;;;;;;20.50;49.60;;;;;;8395196;28;19917;-49
2021/09/20 03:35:21;;;;;;;;;;;20.60;49.70;;;;;;8395463;28;20399;-48
2021/09/20 03:39:21;;;;;;;;;;;20.60;49.70;;;;;;8400569;28;19927;-49
2021/09/20 03:43:22;;;;;;;;;;;20.60;49.80;;;;;;8401849;28;20393;-51
2021/09/20 03:47:23;;;;;;;;;;;20.50;49.70;;;;;;8401767;28;19924;-48
2021/09/20 03:51:23;;;;;;;;;;;20.50;49.80;;;;;;8401810;28;20339;-49
2021/09/20 03:55:24;;;;;;;;;;;20.50;49.70;;;;;;8400981;28;20008;-48
2021/09/20 03:59:25;;;;;;;;;;;20.60;49.80;;;;;;8401980;28;19957;-51
2021/09/20 04:03:26;;;;;;;;;;;20.50;49.70;;;;;;8401266;28;20054;-48
2021/09/20 04:07:26;;;;;;;;;;;20.50;49.70;;;;;;8400833;28;19921;-48
2021/09/20 04:11:27;;;;;;;;;;;20.50;49.80;;;;;;8401218;28;19920;-49
2021/09/20 04:15:28;;;;;;;;;;;20.50;49.70;;;;;;8401291;28;19917;-48
2021/09/20 04:19:28;;;;;;;;;;;20.50;49.70;;;;;;8400798;28;19997;-48
2021/09/20 04:23:29;;;;;;;;;;;20.50;49.80;;;;;;8400575;28;19928;-49
2021/09/20 04:27:29;;;;;;;;;;;20.50;49.70;;;;;;8400349;28;19978;-48
2021/09/20 04:31:30;;;;;;;;;;;20.50;49.70;;;;;;8400120;28;19936;-48
2021/09/20 04:35:30;;;;;;;;;;;20.50;49.80;;;;;;8401006;28;19970;-49
2021/09/20 04:39:31;;;;;;;;;;;20.50;49.70;;;;;;8400493;28;20003;-49
2021/09/20 04:43:31;;;;;;;;;;;20.50;49.70;;;;;;8399420;28;19931;-48
2021/09/20 04:47:31;;;;;;;;;;;20.50;49.70;;;;;;8399901;28;20277;-49
2021/09/20 04:51:32;;;;;;;;;;;20.50;49.80;;;;;;8399766;28;19962;-49
2021/09/20 04:55:32;;;;;;;;;;;20.50;49.70;;;;;;8399635;28;20353;-49
2021/09/20 04:59:33;;;;;;;;;;;20.50;49.80;;;;;;8399673;28;19916;-48
2021/09/20 05:03:33;;;;;;;;;;;20.50;49.80;;;;;;8399235;28;19925;-49
2021/09/20 05:07:35;;;;;;;;;;;20.50;49.70;;;;;;8398886;28;19916;-49
2021/09/20 05:11:36;;;;;;;;;;;20.50;49.80;;;;;;8399698;28;20035;-48
2021/09/20 05:15:36;;;;;;;;;;;20.40;49.70;;;;;;8398939;28;19917;-49
2021/09/20 05:19:37;;;;;;;;;;;20.50;49.80;;;;;;8398485;28;19917;-49
2021/09/20 05:23:37;;;;;;;;;;;20.50;49.80;;;;;;8399031;28;19928;-49
2021/09/20 05:27:38;;;;;;;;;;;20.40;49.70;;;;;;8399540;28;19916;-49
2021/09/20 05:31:38;;;;;;;;;;;20.50;49.80;;;;;;8398060;28;19920;-49
2021/09/20 05:35:39;;;;;;;;;;;20.50;49.80;;;;;;8398449;28;20521;-49
2021/09/20 05:39:39;;;;;;;;;;;20.50;49.80;;;;;;8398083;28;19924;-48
2021/09/20 05:43:40;;;;;;;;;;;20.40;49.80;;;;;;8398198;28;19978;-50
2021/09/20 05:47:41;;;;;;;;;;;20.40;49.80;;;;;;8398048;28;19916;-48
2021/09/20 05:51:41;;;;;;;;;;;20.40;49.80;;;;;;8397657;28;19916;-48
2021/09/20 05:55:42;;;;;;;;;;;20.40;49.80;;;;;;8397437;28;20281;-50
2021/09/20 05:59:42;;;;;;;;;;;20.40;49.80;;;;;;8397711;28;19913;-48
2021/09/20 06:03:43;;;;;;;;;;;20.40;49.80;;;;;;8397952;28;19950;-48
2021/09/20 06:07:44;;;;;;;;;;;20.40;49.80;;;;;;8396950;28;19916;-50
2021/09/20 06:11:44;;;;;;;;;;;20.40;49.90;;;;;;8397504;28;19927;-52
2021/09/20 06:15:45;;;;;;;;;;;20.40;49.80;;;;;;8397289;28;19951;-54
2021/09/20 06:19:47;;;;;;;;;;;20.40;49.80;;;;;;8397287;28;20293;-53
2021/09/20 06:23:47;;;;;;;;;;;20.40;49.80;;;;;;8397778;28;19924;-52
2021/09/20 06:27:47;;;;;;;;;;;20.40;49.80;;;;;;8396969;28;20273;-49
2021/09/20 06:31:48;;;;;;;;;;;20.40;49.80;;;;;;8396137;28;19916;-50
2021/09/20 06:35:49;;;;;;;;;;;20.40;49.80;;;;;;8397384;28;19920;-49
2021/09/20 06:39:49;;;;;;;;;;;20.40;49.80;;;;;;8396749;28;20444;-49
2021/09/20 06:43:50;;;;;;;;;;;20.40;49.80;;;;;;8396079;28;19978;-50
2021/09/20 06:47:50;;;;;;;;;;;20.40;49.90;;;;;;8396533;28;19924;-49
2021/09/20 06:51:51;;;;;;;;;;;20.40;49.90;;;;;;8396240;28;19917;-48
2021/09/20 06:55:51;;;;;;;;;;;20.40;49.80;;;;;;8396632;28;19916;-49
2021/09/20 06:59:52;;;;;;;;;;;20.40;49.90;;;;;;8396262;28;20420;-49
2021/09/20 07:03:52;;;;;;;;;;;20.40;49.80;;;;;;8396166;28;20278;-52
2021/09/20 07:07:53;;;;;;;;;;;20.40;49.90;;;;;;8395611;28;19920;-49
2021/09/20 07:11:53;;;;;;;;;;;20.40;49.90;;;;;;8397969;28;19925;-50
2021/09/20 07:15:54;;;;;;;;;;;20.40;49.90;;;;;;8402841;28;20011;-49
2021/09/20 07:19:54;;;;;;;;;;;20.40;49.90;;;;;;8402156;28;19916;-49
2021/09/20 07:23:55;;;;;;;;;;;20.40;49.90;;;;;;8402509;28;20011;-50
2021/09/20 07:27:56;;;;;;;;;;;20.40;50.00;;;;;;8402619;28;19947;-50
2021/09/20 07:31:56;;;;;;;;;;;20.40;49.90;;;;;;8402217;28;19920;-49
2021/09/20 07:35:57;;;;;;;;;;;20.40;50.00;;;;;;8401885;28;19931;-49
2021/09/20 07:39:58;;;;;;;;;;;20.40;50.00;;;;;;8424434;28;19916;-48
2021/09/20 07:43:58;;;;;;;;;;;20.40;50.00;;;;;;8424992;28;19928;-49
2021/09/20 07:47:59;;;;;;;;;;;20.40;50.10;;;;;;8430877;28;19916;-48
2021/09/20 07:51:59;;;;;;;;;;;20.40;50.20;;;;;;8422888;28;20270;-48
2021/09/20 07:56:00;;;;;;;;;;;20.40;50.30;;;;;;8426195;28;19920;-49
2021/09/20 08:00:00;;;;;;;;;;;20.30;50.30;;;;;;8426788;28;19917;-48
2021/09/20 08:04:01;;;;;;;;;;;20.40;50.30;;;;;;8401482;28;19970;-48
2021/09/20 08:08:02;;;;;;;;;;;20.40;50.30;;;;;;8401399;28;19938;-48
2021/09/20 08:12:03;;;;;;;;;;;20.40;50.30;;;;;;8412012;28;19928;-49
2021/09/20 08:16:03;;;;;;;;;;;20.40;50.30;;;;;;8421216;28;19920;-50
2021/09/20 08:20:05;;;;;;;;;;;20.40;50.30;;;;;;8430524;28;20065;-49
2021/09/20 08:24:05;;;;;;;;;;;20.40;50.40;;;;;;8409554;28;20293;-49
2021/09/20 08:28:06;;;;;;;;;;;20.40;50.40;;;;;;8406466;28;19917;-52
2021/09/20 08:32:07;;;;;;;;;;;20.40;50.60;;;;;;8399582;28;19930;-50
2021/09/20 08:36:10;;;;;;;;;;;20.40;50.70;;;;;;8399629;28;19916;-52
2021/09/20 08:40:12;;;;;;;;;;;20.40;50.60;;;;;;8400343;28;19922;-49
2021/09/20 08:44:12;;;;;;;;;;;20.40;50.80;;;;;;8399861;28;19925;-52
2021/09/20 08:48:14;;;;;;;;;;;20.40;50.70;;;;;;8407424;28;19923;-52
2021/09/20 08:52:14;;;;;;;;;;;20.40;50.70;;;;;;8431776;28;19916;-53
2021/09/20 08:56:15;;;;;;;;;;;20.40;50.80;;;;;;8428946;28;19932;-49
2021/09/20 09:00:16;;;;;;;;;;;20.40;50.80;;;;;;8426051;28;20265;-47
2021/09/20 09:04:33;;;;;;;;;;;20.30;50.80;;;;;;8413052;28;20304;-52
2021/09/20 09:08:38;;;;;;;;;;;20.40;50.80;;;;;;8414717;28;19916;-52
2021/09/20 09:12:38;;;;;;;;;;;20.40;50.80;;;;;;8424495;28;19916;-53
2021/09/20 09:16:39;;;;;;;;;;;20.40;50.90;;;;;;8398813;28;20353;-51
2021/09/20 09:20:41;;;;;;;;;;;20.40;51.00;;;;;;8398655;28;19920;-49
2021/09/20 09:24:52;;;;;;;;;;;20.40;50.90;;;;;;8408510;28;20347;-50
2021/09/20 09:28:53;;;;;;;;;;;20.40;51.00;;;;;;8406029;28;19931;-52
2021/09/20 09:33:05;;;;;;;;;;;20.40;50.80;;;;;;8426691;28;19927;-50
2021/09/20 09:37:10;;;;;;;;;;;20.40;51.10;;;;;;8397774;28;20292;-48
2021/09/20 09:41:10;;;;;;;;;;;20.40;50.90;;;;;;8397921;28;19962;-48
2021/09/20 09:45:18;;;;;;;;;;;20.30;50.90;;;;;;8405521;28;19924;-49
2021/09/20 09:49:21;;;;;;;;;;;20.40;51.10;;;;;;8426303;28;19916;-49
2021/09/20 09:53:27;;;;;;;;;;;20.40;51.30;;;;;;8427483;28;19923;-52
2021/09/20 09:57:27;;;;;;;;;;;20.40;50.90;;;;;;8426339;28;19916;-48
2021/09/20 10:01:31;;;;;;;;;;;20.40;50.90;;;;;;8425734;28;19917;-48
2021/09/20 10:05:31;;;;;;;;;;;20.40;51.10;;;;;;8425554;28;19924;-52
2021/09/20 10:09:32;;;;;;;;;;;20.40;50.90;;;;;;8422227;28;20033;-50
2021/09/20 10:13:33;;;;;;;;;;;20.30;50.80;;;;;;8423358;28;19916;-51
2021/09/20 10:17:33;;;;;;;;;;;20.40;50.90;;;;;;8420734;28;20372;-52
2021/09/20 10:21:34;;;;;;;;;;;20.40;50.80;;;;;;8421430;28;19931;-49
2021/09/20 10:25:34;;;;;;;;;;;20.40;51.00;;;;;;8421668;28;19928;-49
2021/09/20 10:29:36;;;;;;;;;;;20.40;51.00;;;;;;8426587;28;20367;-48
2021/09/20 10:33:37;;;;;;;;;;;20.40;50.80;;;;;;8422385;28;19916;-48
2021/09/20 10:37:37;;;;;;;;;;;20.40;51.00;;;;;;8425178;28;20387;-51
2021/09/20 10:41:38;;;;;;;;;;;20.40;50.80;;;;;;8420923;28;20392;-49
2021/09/20 10:45:46;;;;;;;;;;;20.40;51.00;;;;;;8425156;28;19931;-49
2021/09/20 10:49:47;;;;;;;;;;;20.40;50.90;;;;;;8424126;28;20327;-47
2021/09/20 10:54:08;;;;;;;;;;;20.40;50.70;;;;;;8419564;28;19961;-49
2021/09/20 10:58:19;;;;;;;;;;;20.40;50.70;;;;;;8391883;28;19924;-48
2021/09/20 11:02:27;;;;;;;;;;;20.50;50.80;;;;;;8396215;28;19916;-53
2021/09/20 11:06:28;;;;;;;;;;;20.50;50.80;;;;;;8400385;28;20393;-52
2021/09/20 11:10:30;;;;;;;;;;;20.50;50.70;;;;;;8396452;28;19959;-51
2021/09/20 11:14:38;;;;;;;;;;;20.50;50.70;;;;;;8396165;28;19920;-50
2021/09/20 11:18:39;;;;;;;;;;;20.50;50.60;;;;;;8402310;28;19916;-52
2021/09/20 11:22:39;;;;;;;;;;;20.50;50.70;;;;;;8417126;28;19924;-49
2021/09/20 11:26:39;;;;;;;;;;;20.50;50.60;;;;;;8391392;28;19936;-52
2021/09/20 11:30:40;;;;;;;;;;;20.50;50.70;;;;;;8390162;28;19924;-50
2021/09/20 11:34:48;;;;;;;;;;;20.50;50.60;;;;;;8390148;28;19970;-49
2021/09/20 11:38:49;;;;;;;;;;;20.50;50.80;;;;;;8390987;28;19917;-49
2021/09/20 11:42:51;;;;;;;;;;;20.50;50.60;;;;;;8390128;28;19927;-50
2021/09/20 11:46:51;;;;;;;;;;;20.50;50.60;;;;;;8390679;28;20270;-49
2021/09/20 11:50:52;;;;;;;;;;;20.50;50.70;;;;;;8389711;28;19917;-52
2021/09/20 11:54:52;;;;;;;;;;;20.50;50.70;;;;;;8389672;28;19916;-51
2021/09/20 11:58:54;;;;;;;;;;;20.50;50.60;;;;;;8392378;28;19923;-48
2021/09/20 12:02:55;;;;;;;;;;;20.50;50.70;;;;;;8396264;28;20135;-51
2021/09/20 12:06:56;;;;;;;;;;;20.50;50.50;;;;;;8396335;28;19921;-50
2021/09/20 12:10:57;;;;;;;;;;;20.50;50.70;;;;;;8396068;28;20305;-49
2021/09/20 12:15:03;;;;;;;;;;;20.50;50.50;;;;;;8396517;28;19947;-50
2021/09/20 12:19:04;;;;;;;;;;;20.50;50.60;;;;;;8396010;28;19924;-50
2021/09/20 12:23:11;;;;;;;;;;;20.60;50.60;;;;;;8428474;28;21287;-48
2021/09/20 12:27:11;;;;;;;;;;;20.60;50.60;;;;;;8429010;28;19923;-49
2021/09/20 12:31:14;;;;;;;;;;;20.60;50.50;;;;;;8428759;28;19916;-50
2021/09/20 12:35:14;;;;;;;;;;;20.60;50.40;;;;;;8428867;28;19916;-51
2021/09/20 12:39:18;;;;;;;;;;;20.60;50.30;;;;;;8429148;28;20015;-52
2021/09/20 12:43:25;;;;;;;;;;;20.60;50.30;;;;;;8427755;28;20281;-48
2021/09/20 12:47:27;;;;;;;;;;;20.60;50.30;;;;;;8428387;28;19916;-48
2021/09/20 12:51:32;;;;;;;;;;;20.60;50.30;;;;;;8427931;28;19920;-52
2021/09/20 12:55:36;;;;;;;;;;;20.70;50.30;;;;;;8427804;28;19920;-50
2021/09/20 12:59:36;;;;;;;;;;;20.60;50.30;;;;;;8428630;28;19916;-52
2021/09/20 13:03:38;;;;;;;;;;;20.70;50.40;;;;;;8406338;28;19925;-50
2021/09/20 13:07:39;;;;;;;;;;;20.70;50.30;;;;;;8393786;28;19917;-49
2021/09/20 13:11:41;;;;;;;;;;;20.70;50.40;;;;;;8393015;28;19935;-49
2021/09/20 13:15:43;;;;;;;;;;;20.70;50.30;;;;;;8394433;28;19916;-50
2021/09/20 13:19:59;;;;;;;;;;;20.70;50.40;;;;;;8393048;28;19960;-50
2021/09/20 13:24:00;;;;;;;;;;;20.70;50.20;;;;;;8392760;28;19924;-51
2021/09/20 13:28:00;;;;;;;;;;;20.70;50.20;;;;;;8392687;28;20064;-52
2021/09/20 13:32:01;;;;;;;;;;;20.70;50.40;;;;;;8393461;28;19986;-48
2021/09/20 13:36:03;;;;;;;;;;;20.70;50.30;;;;;;8393313;28;19990;-49
2021/09/20 13:40:04;;;;;;;;;;;20.70;50.20;;;;;;8392141;28;20396;-50
2021/09/20 13:44:05;;;;;;;;;;;20.70;50.30;;;;;;8392773;28;19925;-52
2021/09/20 13:48:07;;;;;;;;;;;20.70;50.30;;;;;;8392478;28;20462;-50
2021/09/20 13:52:08;;;;;;;;;;;20.70;50.20;;;;;;8392350;28;20335;-52
2021/09/20 13:56:08;;;;;;;;;;;20.70;50.20;;;;;;8391836;28;19936;-49
2021/09/20 14:00:10;;;;;;;;;;;20.70;50.20;;;;;;8392385;28;19923;-51
2021/09/20 14:04:10;;;;;;;;;;;20.80;50.30;;;;;;8391636;28;19974;-48
2021/09/20 14:08:11;;;;;;;;;;;20.80;50.20;;;;;;8392585;28;19924;-50
2021/09/20 14:12:12;;;;;;;;;;;20.80;50.30;;;;;;8391803;28;20010;-49
2021/09/20 14:16:13;;;;;;;;;;;20.80;50.30;;;;;;8391188;28;20303;-50
2021/09/20 14:20:15;;;;;;;;;;;20.80;50.30;;;;;;8391507;28;19923;-50
2021/09/20 14:24:15;;;;;;;;;;;20.80;50.30;;;;;;8391132;28;20274;-49
2021/09/20 14:28:17;;;;;;;;;;;20.80;50.20;;;;;;8391841;28;19951;-51
2021/09/20 14:32:18;;;;;;;;;;;20.80;50.30;;;;;;8391402;28;20341;-52
2021/09/20 14:36:18;;;;;;;;;;;20.80;50.20;;;;;;8391424;28;19923;-52
2021/09/20 14:40:21;;;;;;;;;;;20.80;50.30;;;;;;8391264;28;19948;-49
2021/09/20 14:44:21;;;;;;;;;;;20.80;50.20;;;;;;8392040;28;19925;-50
2021/09/20 14:48:22;;;;;;;;;;;20.80;50.20;;;;;;8390995;28;20277;-52
2021/09/20 14:52:22;;;;;;;;;;;20.80;50.20;;;;;;8390672;28;20502;-52
2021/09/20 14:56:23;;;;;;;;;;;20.80;50.30;;;;;;8391242;28;19916;-52
2021/09/20 15:00:24;;;;;;;;;;;20.80;50.10;;;;;;8391690;28;19981;-51
2021/09/20 15:04:25;;;;;;;;;;;20.80;50.10;;;;;;8391081;28;20270;-52
2021/09/20 15:08:25;;;;;;;;;;;20.80;50.10;;;;;;8390618;28;19916;-49
2021/09/20 15:12:26;;;;;;;;;;;20.80;50.20;;;;;;8390712;28;19923;-49
2021/09/20 15:16:26;;;;;;;;;;;20.80;50.10;;;;;;8389818;28;19927;-49
2021/09/20 15:20:27;;;;;;;;;;;20.80;50.10;;;;;;8391295;28;20266;-49
2021/09/20 15:24:27;;;;;;;;;;;20.80;50.10;;;;;;8390588;28;19925;-52
2021/09/20 15:28:28;;;;;;;;;;;20.80;50.10;;;;;;8389607;28;19970;-50
2021/09/20 15:32:28;;;;;;;;;;;20.80;50.10;;;;;;8390402;28;19923;-49
2021/09/20 15:36:29;;;;;;;;;;;20.80;50.10;;;;;;8397044;28;20113;-49
2021/09/20 15:40:30;;;;;;;;;;;20.80;50.20;;;;;;8396453;28;19917;-49
2021/09/20 15:44:30;;;;;;;;;;;20.80;50.20;;;;;;8397001;28;19998;-53
2021/09/20 15:48:31;;;;;;;;;;;20.80;50.20;;;;;;8396737;28;19923;-49
2021/09/20 15:52:31;;;;;;;;;;;20.80;50.20;;;;;;8395975;28;20019;-51
2021/09/20 15:56:32;;;;;;;;;;;20.80;50.20;;;;;;8396575;28;19924;-52
2021/09/20 16:00:32;;;;;;;;;;;20.80;50.20;;;;;;8395990;28;19916;-51
2021/09/20 16:04:33;;;;;;;;;;;20.80;50.10;;;;;;8395334;28;19928;-49
2021/09/20 16:08:33;;;;;;;;;;;20.80;50.20;;;;;;8396095;28;20442;-49
2021/09/20 16:12:34;;;;;;;;;;;20.80;50.20;;;;;;8396890;28;19916;-51
2021/09/20 16:16:34;;;;;;;;;;;20.80;50.10;;;;;;8395666;28;19928;-49
2021/09/20 16:20:35;;;;;;;;;;;20.80;50.10;;;;;;8395469;28;19917;-52
2021/09/20 16:24:36;;;;;;;;;;;20.80;50.10;;;;;;8395295;28;19954;-52
2021/09/20 16:28:36;;;;;;;;;;;20.80;50.20;;;;;;8395416;28;19923;-52
2021/09/20 16:32:37;;;;;;;;;;;20.80;50.10;;;;;;8377204;28;19923;-49
2021/09/20 16:36:38;;;;;;;;;;;20.80;50.20;;;;;;8395531;28;19931;-52
2021/09/20 16:40:38;;;;;;;;;;;20.80;50.10;;;;;;8395118;28;20361;-51
2021/09/20 16:44:39;;;;;;;;;;;20.80;50.20;;;;;;8394951;28;19931;-49
2021/09/20 16:48:41;;;;;;;;;;;20.80;50.20;;;;;;8395145;28;19930;-49
2021/09/20 16:52:42;;;;;;;;;;;20.80;50.70;;;;;;8393229;28;19952;-50
2021/09/20 16:56:43;;;;;;;;;;;20.80;50.20;;;;;;8394893;28;20319;-50
2021/09/20 17:00:44;;;;;;;;;;;20.80;50.20;;;;;;8394144;28;19916;-51
2021/09/20 17:04:45;;;;;;;;;;;20.80;50.20;;;;;;8395283;28;20384;-50
2021/09/20 17:08:47;;;;;;;;;;;20.80;50.30;;;;;;8394172;28;20264;-50
2021/09/20 17:12:47;;;;;;;;;;;20.80;50.30;;;;;;8393827;28;19923;-50
2021/09/20 17:16:48;;;;;;;;;;;20.70;50.20;;;;;;8374270;28;20312;-51
2021/09/20 17:20:48;;;;;;;;;;;20.80;50.30;;;;;;8394226;28;19916;-51
2021/09/20 17:24:51;;;;;;;;;;;20.80;50.30;;;;;;8393972;28;19947;-49
2021/09/20 17:28:53;;;;;;;;;;;20.80;50.40;;;;;;8393853;28;19924;-51
2021/09/20 17:32:55;;;;;;;;;;;20.80;50.30;;;;;;8412069;28;19916;-51
2021/09/20 17:36:56;;;;;;;;;;;20.80;50.20;;;;;;8413155;28;19916;-46
2021/09/20 17:40:57;;;;;;;;;;;20.70;50.90;;;;;;8407945;28;19924;-49
2021/09/20 17:44:57;;;;;;;;;;;20.50;52.00;;;;;;8393083;28;19924;-51
2021/09/20 17:48:58;;;;;;;;;;;20.50;51.80;;;;;;8396217;28;20392;-49
2021/09/20 17:52:58;;;;;;;;;;;20.60;51.80;;;;;;8402978;28;20443;-49
2021/09/20 17:56:59;;;;;;;;;;;20.60;51.60;;;;;;8429015;28;19991;-53
2021/09/20 18:01:00;;;;;;;;;;;20.60;51.50;;;;;;8430981;28;19916;-52
2021/09/20 18:05:00;;;;;;;;;;;20.60;51.40;;;;;;8430359;28;19928;-50
2021/09/20 18:09:02;;;;;;;;;;;20.70;51.20;;;;;;8430889;28;20329;-49
2021/09/20 18:13:05;;;;;;;;;;;20.70;51.10;;;;;;8428609;28;20329;-52
2021/09/20 18:17:06;;;;;;;;;;;20.70;51.10;;;;;;8397535;28;20369;-50
2021/09/20 18:21:07;;;;;;;;;;;20.70;51.10;;;;;;8396749;28;19925;-50
2021/09/20 18:25:07;;;;;;;;;;;20.70;51.00;;;;;;8396323;28;19928;-49
2021/09/20 18:29:08;;;;;;;;;;;20.70;51.00;;;;;;8396377;28;19917;-50
2021/09/20 18:33:09;;;;;;;;;;;20.70;50.80;;;;;;8397690;28;19917;-47
2021/09/20 18:37:09;;;;;;;;;;;20.70;50.80;;;;;;8396000;28;19916;-50
2021/09/20 18:41:10;;;;;;;;;;;20.70;50.80;;;;;;8396542;28;19916;-47
2021/09/20 18:45:12;;;;;;;;;;;20.70;50.80;;;;;;8396477;28;20015;-49
2021/09/20 18:49:12;;;;;;;;;;;20.70;50.80;;;;;;8396417;28;19924;-50
2021/09/20 18:53:13;;;;;;;;;;;20.70;50.70;;;;;;8396841;28;19916;-50
2021/09/20 18:57:14;;;;;;;;;;;20.70;50.70;;;;;;8396216;28;19917;-50
2021/09/20 19:01:14;;;;;;;;;;;20.70;50.80;;;;;;8395784;28;19916;-53
2021/09/20 19:05:15;;;;;;;;;;;20.70;50.80;;;;;;8396394;28;19986;-51
2021/09/20 19:09:15;;;;;;;;;;;20.70;50.70;;;;;;8417950;28;20395;-48
2021/09/20 19:13:16;;;;;;;;;;;20.70;50.70;;;;;;8436038;28;20262;-48
2021/09/20 19:17:16;;;;;;;;;;;20.70;50.70;;;;;;8436310;28;20430;-50
2021/09/20 19:21:17;;;;;;;;;;;20.70;50.70;;;;;;8436237;28;19950;-49
2021/09/20 19:25:20;;;;;;;;;;;20.70;50.70;;;;;;8436063;28;19920;-47
2021/09/20 19:29:22;;;;;;;;;;;20.70;50.70;;;;;;8435196;28;19942;-48
2021/09/20 19:33:23;;;;;;;;;;;20.70;50.70;;;;;;8413793;28;19958;-48
2021/09/20 19:37:23;;;;;;;;;;;20.70;50.70;;;;;;8401622;28;20327;-48
2021/09/20 19:41:24;;;;;;;;;;;20.70;50.70;;;;;;8411366;28;19912;-50
2021/09/20 19:45:24;;;;;;;;;;;20.70;50.60;;;;;;8400567;28;19921;-47
2021/09/20 19:49:25;;;;;;;;;;;20.70;50.80;;;;;;8401408;28;20382;-50
2021/09/20 19:53:25;;;;;;;;;;;20.70;50.70;;;;;;8402038;28;20369;-48
2021/09/20 19:57:25;;;;;;;;;;;20.70;50.70;;;;;;8401390;28;19924;-48
2021/09/20 20:01:29;;;;;;;;;;;20.70;50.80;;;;;;8401500;28;20007;-48
2021/09/20 20:05:30;;;;;;;;;;;20.70;50.80;;;;;;8401257;28;19925;-48
2021/09/20 20:09:30;;;;;;;;;;;20.70;50.70;;;;;;8401159;28;19931;-47
2021/09/20 20:13:31;;;;;;;;;;;20.60;50.70;;;;;;8382357;28;19970;-50
2021/09/20 20:17:31;;;;;;;;;;;20.70;50.70;;;;;;8401742;28;19919;-48
2021/09/20 20:21:35;;;;;;;;;;;20.70;50.70;;;;;;8400468;28;19916;-48
2021/09/20 20:25:36;;;;;;;;;;;20.60;50.80;;;;;;8400179;28;19924;-52
2021/09/20 20:29:36;;;;;;;;;;;20.60;50.80;;;;;;8400734;28;19917;-48
2021/09/20 20:33:37;;;;;;;;;;;20.60;50.60;;;;;;8400629;28;20011;-49
2021/09/20 20:37:37;;;;;;;;;;;20.60;50.70;;;;;;8400681;28;19912;-49
2021/09/20 20:41:38;;;;;;;;;;;20.60;50.70;;;;;;8400582;28;19925;-51
2021/09/20 20:45:39;;;;;;;;;;;20.60;50.80;;;;;;8399969;28;19978;-47
2021/09/20 20:49:39;;;;;;;;;;;20.70;50.80;;;;;;8399754;28;20019;-49
2021/09/20 20:53:40;;;;;;;;;;;20.60;50.70;;;;;;8400700;28;20534;-49
2021/09/20 20:57:40;;;;;;;;;;;20.60;50.70;;;;;;8399723;28;19921;-49
2021/09/20 21:01:41;;;;;;;;;;;20.60;50.80;;;;;;8399095;28;19956;-51
2021/09/20 21:05:42;;;;;;;;;;;20.60;50.70;;;;;;8399631;28;19929;-50
2021/09/20 21:09:42;;;;;;;;;;;20.60;50.80;;;;;;8399862;28;19971;-51
2021/09/20 21:13:43;;;;;;;;;;;20.60;50.70;;;;;;8399455;28;19995;-53
2021/09/20 21:17:43;;;;;;;;;;;20.60;50.70;;;;;;8399401;28;19995;-49
2021/09/20 21:21:44;;;;;;;;;;;20.60;50.60;;;;;;8398779;28;19913;-49
2021/09/20 21:25:44;;;;;;;;;;;20.60;50.70;;;;;;8398229;28;20057;-49
2021/09/20 21:29:46;;;;;;;;;;;20.60;51.30;;;;;;8399064;28;19913;-52
2021/09/20 21:33:46;;;;;;;;;;;20.60;50.70;;;;;;8398140;28;19916;-52
2021/09/20 21:37:47;;;;;;;;;;;20.60;50.70;;;;;;8398055;28;20374;-49
2021/09/20 21:41:47;;;;;;;;;;;20.60;50.60;;;;;;8398958;28;20331;-49
2021/09/20 21:45:48;;;;;;;;;;;20.60;50.60;;;;;;8398510;28;20384;-49
2021/09/20 21:49:48;;;;;;;;;;;20.60;50.70;;;;;;8398200;28;19916;-49
2021/09/20 21:53:49;;;;;;;;;;;20.60;50.60;;;;;;8412443;28;20346;-48
2021/09/20 21:57:49;;;;;;;;;;;20.60;50.60;;;;;;8419391;28;19913;-47
2021/09/20 22:01:50;;;;;;;;;;;20.60;50.70;;;;;;8407299;28;19924;-48
2021/09/20 22:05:51;;;;;;;;;;;20.60;50.60;;;;;;8397764;28;20011;-49
2021/09/20 22:09:51;;;;;;;;;;;20.60;50.60;;;;;;8397837;28;19975;-47
2021/09/20 22:13:51;;;;;;;;;;;20.60;50.60;;;;;;8396745;28;20361;-49
2021/09/20 22:17:52;;;;;;;;;;;20.60;50.60;;;;;;8397147;28;20468;-48
2021/09/20 22:21:52;;;;;;;;;;;20.60;50.70;;;;;;8397719;28;19913;-48
2021/09/20 22:25:53;;;;;;;;;;;20.60;50.70;;;;;;8396391;28;19924;-48
2021/09/20 22:29:53;;;;;;;;;;;20.60;50.60;;;;;;8396892;28;19922;-48
2021/09/20 22:33:54;;;;;;;;;;;20.60;50.70;;;;;;8396714;28;19921;-49
2021/09/20 22:37:54;;;;;;;;;;;20.60;50.70;;;;;;8396911;28;19917;-49
2021/09/20 22:41:55;;;;;;;;;;;20.60;50.60;;;;;;8396573;28;20282;-48
2021/09/20 22:45:56;;;;;;;;;;;20.60;50.60;;;;;;8430074;28;19946;-47
2021/09/20 22:49:56;;;;;;;;;;;20.60;50.70;;;;;;8429611;28;19943;-49
2021/09/20 22:53:58;;;;;;;;;;;20.60;50.60;;;;;;8429989;28;19924;-47
2021/09/20 22:57:59;;;;;;;;;;;20.60;50.60;;;;;;8430606;28;19913;-48
2021/09/20 23:01:59;;;;;;;;;;;20.60;50.70;;;;;;8429386;28;20361;-49
2021/09/20 23:06:00;;;;;;;;;;;20.60;50.60;;;;;;8429583;28;20464;-48
2021/09/20 23:10:00;;;;;;;;;;;20.60;50.70;;;;;;8429705;28;20315;-47
2021/09/20 23:14:00;;;;;;;;;;;20.60;50.60;;;;;;8430140;28;19961;-51
2021/09/20 23:18:01;;;;;;;;;;;20.60;50.60;;;;;;8429418;28;20010;-47
2021/09/20 23:22:02;;;;;;;;;;;20.60;50.70;;;;;;8429263;28;19916;-48